createdAt,value
2022-08-26T00:00:21.461Z,12.03
2022-08-26T00:01:24.329Z,13.72
2022-08-26T00:02:30.252Z,12.61
2022-08-26T00:03:32.858Z,11.69
2022-08-26T00:04:35.294Z,11.51
2022-08-26T00:05:37.742Z,11.20
2022-08-26T00:06:42.551Z,10.53
2022-08-26T00:07:45.376Z,11.26
2022-08-26T00:08:47.917Z,11.43
2022-08-26T00:09:54.459Z,12.13
2022-08-26T00:10:57.917Z,13.17
2022-08-26T00:12:02.820Z,12.23
2022-08-26T00:13:05.455Z,12.44
2022-08-26T00:14:08.030Z,10.54
2022-08-26T00:15:11.312Z,11.25
2022-08-26T00:16:14.785Z,12.36
2022-08-26T00:17:17.273Z,14.09
2022-08-26T00:18:22.612Z,13.19
2022-08-26T00:19:24.094Z,12.46
2022-08-26T00:20:28.093Z,14.07
2022-08-26T00:21:30.593Z,12.89
2022-08-26T00:22:34.070Z,14.04
2022-08-26T00:23:36.635Z,9.85
2022-08-26T00:24:39.200Z,13.73
2022-08-26T00:25:42.558Z,12.28
2022-08-26T00:26:45.771Z,10.06
2022-08-26T00:27:50.437Z,14.63
2022-08-26T00:28:54.810Z,9.38
2022-08-26T00:29:57.299Z,12.12
2022-08-26T00:31:00.970Z,9.83
2022-08-26T00:32:04.087Z,12.59
2022-08-26T00:33:07.178Z,11.48
2022-08-26T00:34:09.843Z,12.09
2022-08-26T00:35:13.824Z,12.91
2022-08-26T00:36:20.278Z,14.14
2022-08-26T00:37:22.328Z,11.30
2022-08-26T00:38:24.739Z,15.35
2022-08-26T00:39:27.295Z,13.63
2022-08-26T00:40:32.777Z,11.04
2022-08-26T00:41:37.396Z,13.26
2022-08-26T00:42:39.975Z,16.21
2022-08-26T00:43:47.737Z,12.95
2022-08-26T00:44:51.161Z,12.38
2022-08-26T00:45:58.180Z,10.61
2022-08-26T00:47:02.428Z,10.86
2022-08-26T00:48:04.888Z,11.76
2022-08-26T00:49:11.679Z,12.32
2022-08-26T00:50:16.358Z,11.38
2022-08-26T00:51:19.939Z,10.79
2022-08-26T00:52:22.626Z,14.86
2022-08-26T00:53:27.960Z,12.62
2022-08-26T00:54:33.949Z,10.21
2022-08-26T00:55:38.263Z,10.35
2022-08-26T00:56:43.326Z,11.33
2022-08-26T00:57:45.860Z,11.40
2022-08-26T00:58:48.326Z,12.45
2022-08-26T00:59:53.191Z,13.26
2022-08-26T01:00:56.277Z,11.15
2022-08-26T01:01:59.001Z,11.10
2022-08-26T01:04:16.977Z,11.99
2022-08-26T01:05:19.570Z,12.77
2022-08-26T01:06:26.739Z,11.35
2022-08-26T01:07:30.184Z,13.47
2022-08-26T01:08:33.710Z,10.24
2022-08-26T01:09:37.135Z,10.09
2022-08-26T01:10:40.165Z,12.72
2022-08-26T01:11:42.841Z,10.59
2022-08-26T01:12:47.021Z,10.18
2022-08-26T01:13:50.522Z,11.06
2022-08-26T01:14:53.188Z,12.81
2022-08-26T01:15:56.425Z,12.03
2022-08-26T01:17:00.524Z,10.20
2022-08-26T01:18:03.815Z,10.64
2022-08-26T01:19:08.208Z,12.77
2022-08-26T01:20:13.887Z,11.65
2022-08-26T01:22:46.185Z,13.02
2022-08-26T01:23:51.954Z,12.16
2022-08-26T01:24:56.373Z,14.38
2022-08-26T01:26:02.482Z,11.22
2022-08-26T01:27:06.853Z,12.93
2022-08-26T01:28:11.754Z,13.28
2022-08-26T01:29:16.036Z,12.29
2022-08-26T01:30:20.555Z,11.16
2022-08-26T01:31:25.042Z,9.41
2022-08-26T01:32:29.837Z,12.75
2022-08-26T01:33:42.180Z,12.87
2022-08-26T01:34:41.246Z,11.89
2022-08-26T01:35:44.332Z,12.64
2022-08-26T01:36:51.181Z,9.93
2022-08-26T01:37:52.368Z,11.88
2022-08-26T01:38:55.431Z,10.89
2022-08-26T01:39:57.918Z,12.60
2022-08-26T01:41:00.947Z,14.23
2022-08-26T01:42:10.345Z,11.08
2022-08-26T01:43:13.773Z,12.74
2022-08-26T01:44:17.732Z,11.29
2022-08-26T01:45:21.313Z,11.48
2022-08-26T01:46:25.772Z,10.82
2022-08-26T01:47:30.106Z,13.94
2022-08-26T01:48:33.556Z,10.71
2022-08-26T01:49:36.139Z,10.60
2022-08-26T01:50:40.463Z,10.85
2022-08-26T01:51:44.185Z,11.32
2022-08-26T01:52:48.110Z,11.45
2022-08-26T01:53:51.384Z,11.74
2022-08-26T01:54:54.533Z,11.94
2022-08-26T01:55:58.230Z,10.34
2022-08-26T01:57:00.997Z,8.88
2022-08-26T01:58:05.682Z,10.43
2022-08-26T01:59:09.436Z,11.79
2022-08-26T02:00:16.225Z,12.24
2022-08-26T02:01:19.483Z,11.01
2022-08-26T02:02:22.206Z,11.26
2022-08-26T02:03:26.635Z,12.22
2022-08-26T02:04:31.078Z,10.87
2022-08-26T02:05:33.628Z,9.62
2022-08-26T02:06:39.737Z,10.61
2022-08-26T02:07:42.549Z,15.34
2022-08-26T02:09:56.984Z,12.34
2022-08-26T02:10:59.635Z,14.05
2022-08-26T02:12:03.197Z,12.95
2022-08-26T02:13:07.649Z,16.83
2022-08-26T02:14:12.581Z,16.26
2022-08-26T02:15:15.358Z,12.15
2022-08-26T02:16:20.784Z,14.55
2022-08-26T02:17:28.237Z,17.61
2022-08-26T02:18:32.728Z,13.98
2022-08-26T02:19:36.701Z,14.49
2022-08-26T02:20:39.375Z,13.11
2022-08-26T02:21:42.137Z,13.70
2022-08-26T02:22:45.751Z,13.83
2022-08-26T02:23:48.327Z,11.57
2022-08-26T02:24:52.684Z,14.95
2022-08-26T02:26:12.296Z,15.89
2022-08-26T02:27:17.064Z,13.42
2022-08-26T02:28:19.860Z,12.70
2022-08-26T02:29:29.205Z,16.80
2022-08-26T02:30:34.162Z,14.22
2022-08-26T02:31:36.969Z,10.75
2022-08-26T02:32:41.340Z,11.30
2022-08-26T02:33:43.841Z,10.40
2022-08-26T02:34:46.410Z,11.65
2022-08-26T02:35:48.985Z,14.21
2022-08-26T02:36:51.736Z,12.24
2022-08-26T02:37:54.193Z,11.65
2022-08-26T02:38:59.705Z,12.12
2022-08-26T02:40:03.470Z,13.89
2022-08-26T02:41:06.097Z,12.76
2022-08-26T02:42:10.369Z,11.64
2022-08-26T02:43:12.922Z,12.44
2022-08-26T02:44:15.396Z,11.28
2022-08-26T02:45:17.839Z,11.26
2022-08-26T02:46:29.868Z,10.57
2022-08-26T02:47:30.681Z,13.54
2022-08-26T02:48:34.983Z,12.01
2022-08-26T02:49:38.567Z,10.78
2022-08-26T02:50:41.265Z,11.83
2022-08-26T02:51:45.440Z,9.58
2022-08-26T02:52:48.008Z,11.36
2022-08-26T02:53:50.495Z,10.81
2022-08-26T02:54:53.565Z,10.23
2022-08-26T02:55:56.051Z,10.06
2022-08-26T02:56:58.729Z,12.86
2022-08-26T02:58:02.820Z,14.37
2022-08-26T02:59:05.487Z,12.80
2022-08-26T03:00:11.702Z,15.11
2022-08-26T03:02:35.624Z,14.06
2022-08-26T03:03:38.202Z,13.11
2022-08-26T03:04:41.253Z,12.63
2022-08-26T03:05:45.569Z,12.97
2022-08-26T03:06:52.678Z,11.44
2022-08-26T03:07:52.668Z,13.85
2022-08-26T03:08:56.456Z,10.74
2022-08-26T03:09:59.012Z,12.73
2022-08-26T03:11:02.096Z,12.13
2022-08-26T03:12:04.739Z,14.49
2022-08-26T03:13:07.616Z,11.74
2022-08-26T03:14:13.010Z,11.70
2022-08-26T03:15:17.929Z,16.51
2022-08-26T03:16:21.870Z,12.89
2022-08-26T03:17:26.923Z,13.34
2022-08-26T03:18:29.589Z,19.37
2022-08-26T03:19:32.841Z,14.33
2022-08-26T03:20:37.550Z,11.22
2022-08-26T03:21:40.002Z,11.23
2022-08-26T03:22:44.380Z,11.56
2022-08-26T03:23:46.824Z,12.15
2022-08-26T03:24:49.421Z,13.30
2022-08-26T03:25:52.062Z,12.85
2022-08-26T03:26:55.034Z,13.85
2022-08-26T03:27:57.516Z,10.15
2022-08-26T03:29:02.112Z,13.09
2022-08-26T03:30:05.667Z,13.31
2022-08-26T03:31:08.382Z,11.44
2022-08-26T03:32:11.053Z,11.08
2022-08-26T03:33:13.521Z,13.88
2022-08-26T03:34:16.027Z,11.84
2022-08-26T03:36:28.549Z,15.20
2022-08-26T03:37:31.826Z,15.06
2022-08-26T03:38:34.680Z,14.09
2022-08-26T03:40:49.384Z,12.99
2022-08-26T03:41:53.486Z,15.18
2022-08-26T03:42:56.665Z,14.21
2022-08-26T03:45:11.367Z,14.20
2022-08-26T03:46:14.606Z,17.52
2022-08-26T03:47:17.118Z,14.75
2022-08-26T03:48:21.505Z,14.81
2022-08-26T03:49:23.951Z,15.91
2022-08-26T03:50:28.526Z,16.32
2022-08-26T03:51:31.284Z,14.59
2022-08-26T03:52:33.838Z,17.88
2022-08-26T03:53:36.403Z,15.55
2022-08-26T03:54:39.642Z,20.38
2022-08-26T03:55:42.413Z,13.11
2022-08-26T03:56:46.598Z,15.15
2022-08-26T03:57:49.345Z,17.39
2022-08-26T03:58:53.051Z,20.93
2022-08-26T03:59:55.481Z,16.98
2022-08-26T04:00:58.659Z,20.23
2022-08-26T04:02:01.346Z,19.29
2022-08-26T04:03:04.264Z,16.07
2022-08-26T04:04:08.074Z,13.99
2022-08-26T04:05:11.460Z,16.57
2022-08-26T04:06:16.672Z,20.26
2022-08-26T04:07:19.445Z,14.09
2022-08-26T04:08:24.497Z,20.84
2022-08-26T04:09:28.783Z,16.96
2022-08-26T04:10:31.464Z,17.75
2022-08-26T04:11:34.318Z,13.41
2022-08-26T04:12:37.389Z,13.32
2022-08-26T04:13:41.259Z,21.75
2022-08-26T04:14:43.690Z,15.44
2022-08-26T04:15:47.145Z,20.97
2022-08-26T04:16:51.577Z,15.66
2022-08-26T04:17:54.334Z,15.63
2022-08-26T04:18:58.731Z,15.81
2022-08-26T04:20:02.194Z,16.81
2022-08-26T04:21:05.140Z,18.46
2022-08-26T04:22:09.537Z,17.87
2022-08-26T04:23:15.443Z,13.86
2022-08-26T04:24:20.726Z,14.13
2022-08-26T04:25:24.223Z,14.96
2022-08-26T04:26:28.816Z,15.59
2022-08-26T04:27:33.151Z,16.02
2022-08-26T04:28:35.521Z,15.12
2022-08-26T04:29:39.303Z,14.05
2022-08-26T04:30:44.135Z,14.37
2022-08-26T04:31:46.701Z,14.07
2022-08-26T04:32:50.753Z,13.47
2022-08-26T04:33:53.306Z,16.42
2022-08-26T04:34:55.805Z,15.45
2022-08-26T04:36:00.981Z,15.07
2022-08-26T04:37:04.985Z,14.16
2022-08-26T04:38:08.289Z,13.74
2022-08-26T04:39:11.040Z,13.47
2022-08-26T04:40:14.040Z,13.37
2022-08-26T04:41:17.171Z,15.71
2022-08-26T04:42:22.792Z,17.29
2022-08-26T04:43:24.758Z,20.02
2022-08-26T04:44:28.721Z,16.97
2022-08-26T04:45:31.340Z,23.60
2022-08-26T04:46:35.763Z,24.08
2022-08-26T04:47:42.665Z,25.37
2022-08-26T04:48:46.081Z,22.34
2022-08-26T04:49:48.729Z,22.35
2022-08-26T04:50:51.490Z,33.81
2022-08-26T04:51:54.050Z,35.51
2022-08-26T04:52:57.753Z,35.58
2022-08-26T04:54:00.456Z,41.18
2022-08-26T04:55:03.488Z,40.20
2022-08-26T04:56:08.203Z,44.59
2022-08-26T04:57:11.637Z,43.22
2022-08-26T04:58:14.916Z,27.24
2022-08-26T04:59:18.177Z,19.52
2022-08-26T05:00:21.786Z,23.39
2022-08-26T05:01:24.447Z,24.38
2022-08-26T05:02:27.547Z,21.59
2022-08-26T05:03:31.209Z,20.06
2022-08-26T05:04:34.029Z,17.36
2022-08-26T05:05:39.776Z,31.74
2022-08-26T05:06:42.438Z,32.56
2022-08-26T05:07:46.808Z,15.01
2022-08-26T05:08:51.194Z,20.44
2022-08-26T05:09:55.594Z,13.99
2022-08-26T05:10:58.654Z,12.68
2022-08-26T05:12:03.322Z,14.23
2022-08-26T05:13:11.188Z,14.60
2022-08-26T05:14:10.273Z,17.22
2022-08-26T05:15:14.765Z,15.74
2022-08-26T05:16:17.666Z,16.04
2022-08-26T05:17:20.409Z,12.89
2022-08-26T05:18:23.253Z,11.07
2022-08-26T05:19:27.974Z,12.12
2022-08-26T05:20:31.142Z,12.82
2022-08-26T05:21:33.797Z,17.67
2022-08-26T05:22:38.114Z,15.54
2022-08-26T05:23:40.669Z,15.51
2022-08-26T05:24:43.773Z,14.14
2022-08-26T05:25:46.534Z,14.87
2022-08-26T05:26:49.320Z,12.63
2022-08-26T05:27:51.881Z,11.34
2022-08-26T05:28:54.844Z,12.38
2022-08-26T05:29:57.972Z,10.71
2022-08-26T05:31:00.876Z,9.39
2022-08-26T05:32:03.878Z,14.47
2022-08-26T05:33:08.457Z,15.11
2022-08-26T05:34:12.081Z,9.59
2022-08-26T05:35:15.100Z,12.08
2022-08-26T05:36:19.797Z,8.95
2022-08-26T05:37:24.013Z,18.51
2022-08-26T05:38:26.817Z,12.59
2022-08-26T05:40:43.770Z,15.22
2022-08-26T05:41:46.422Z,12.09
2022-08-26T05:42:48.873Z,13.60
2022-08-26T05:43:51.586Z,19.05
2022-08-26T05:44:56.052Z,18.68
2022-08-26T05:46:00.371Z,10.97
2022-08-26T05:47:04.956Z,12.04
2022-08-26T05:48:07.721Z,12.23
2022-08-26T05:49:12.258Z,12.96
2022-08-26T05:50:16.637Z,15.86
2022-08-26T05:51:22.795Z,11.99
2022-08-26T05:52:25.911Z,16.32
2022-08-26T05:53:27.855Z,16.21
2022-08-26T05:54:30.444Z,16.75
2022-08-26T05:55:33.004Z,14.01
2022-08-26T05:56:35.955Z,14.88
2022-08-26T05:57:42.842Z,18.75
2022-08-26T05:58:42.857Z,15.05
2022-08-26T05:59:47.175Z,15.08
2022-08-26T06:01:04.710Z,10.13
2022-08-26T06:02:08.516Z,11.04
2022-08-26T06:03:11.609Z,14.45
2022-08-26T06:04:14.132Z,16.17
2022-08-26T06:05:16.696Z,11.02
2022-08-26T06:06:27.205Z,17.52
2022-08-26T06:07:25.054Z,11.02
2022-08-26T06:08:29.904Z,15.48
2022-08-26T06:09:32.306Z,13.82
2022-08-26T06:10:35.443Z,12.81
2022-08-26T06:11:38.020Z,21.30
2022-08-26T06:12:40.505Z,13.95
2022-08-26T06:13:44.090Z,12.49
2022-08-26T06:14:46.547Z,16.43
2022-08-26T06:15:50.965Z,16.15
2022-08-26T06:16:54.023Z,18.44
2022-08-26T06:18:00.741Z,18.45
2022-08-26T06:19:03.551Z,11.44
2022-08-26T06:20:09.011Z,11.30
2022-08-26T06:21:15.736Z,12.90
2022-08-26T06:22:22.315Z,18.49
2022-08-26T06:23:23.264Z,11.05
2022-08-26T06:24:27.213Z,13.81
2022-08-26T06:25:30.129Z,13.99
2022-08-26T06:26:33.922Z,14.55
2022-08-26T06:27:41.317Z,12.19
2022-08-26T06:28:45.578Z,15.49
2022-08-26T06:29:48.109Z,18.99
2022-08-26T06:30:50.891Z,12.95
2022-08-26T06:31:53.718Z,13.72
2022-08-26T06:32:56.280Z,15.54
2022-08-26T06:34:00.799Z,13.39
2022-08-26T06:35:03.722Z,12.92
2022-08-26T06:36:08.549Z,12.28
2022-08-26T06:37:11.777Z,14.19
2022-08-26T06:38:14.340Z,15.50
2022-08-26T06:39:16.786Z,16.25
2022-08-26T06:40:19.951Z,11.78
2022-08-26T06:41:23.918Z,12.70
2022-08-26T06:42:27.615Z,12.12
2022-08-26T06:43:30.181Z,15.96
2022-08-26T06:44:35.630Z,15.78
2022-08-26T06:45:38.533Z,14.33
2022-08-26T06:46:41.263Z,17.62
2022-08-26T06:47:43.883Z,13.52
2022-08-26T06:48:46.538Z,14.47
2022-08-26T06:49:49.501Z,13.35
2022-08-26T06:52:14.853Z,12.38
2022-08-26T06:53:19.250Z,15.18
2022-08-26T06:54:24.332Z,17.25
2022-08-26T06:55:27.207Z,11.88
2022-08-26T06:56:34.070Z,13.51
2022-08-26T06:57:37.776Z,15.76
2022-08-26T06:58:41.130Z,15.98
2022-08-26T06:59:44.137Z,19.49
2022-08-26T07:00:47.486Z,12.89
2022-08-26T07:01:50.580Z,20.04
2022-08-26T07:02:55.775Z,17.53
2022-08-26T07:04:01.183Z,11.44
2022-08-26T07:05:04.370Z,14.36
2022-08-26T07:06:09.029Z,14.37
2022-08-26T07:07:14.353Z,11.22
2022-08-26T07:08:17.099Z,11.56
2022-08-26T07:09:20.405Z,16.54
2022-08-26T07:10:24.077Z,18.76
2022-08-26T07:11:26.745Z,16.44
2022-08-26T07:12:34.322Z,20.21
2022-08-26T07:13:37.904Z,20.85
2022-08-26T07:14:40.486Z,22.13
2022-08-26T07:15:44.899Z,20.81
2022-08-26T07:16:47.810Z,17.51
2022-08-26T07:17:50.288Z,20.83
2022-08-26T07:18:52.868Z,20.07
2022-08-26T07:19:55.389Z,16.24
2022-08-26T07:21:00.016Z,16.78
2022-08-26T07:22:04.813Z,19.58
2022-08-26T07:23:07.673Z,21.94
2022-08-26T07:24:11.871Z,17.45
2022-08-26T07:25:14.321Z,19.85
2022-08-26T07:26:22.957Z,16.16
2022-08-26T07:27:27.358Z,14.32
2022-08-26T07:28:31.048Z,20.23
2022-08-26T07:29:33.973Z,13.20
2022-08-26T07:30:39.981Z,15.16
2022-08-26T07:31:43.657Z,20.35
2022-08-26T07:32:46.100Z,18.54
2022-08-26T07:33:48.658Z,14.70
2022-08-26T07:34:51.445Z,14.23
2022-08-26T07:35:53.909Z,13.53
2022-08-26T07:36:56.658Z,14.97
2022-08-26T07:37:59.113Z,19.67
2022-08-26T07:39:03.487Z,15.88
2022-08-26T07:40:06.790Z,19.28
2022-08-26T07:41:09.760Z,12.84
2022-08-26T07:42:13.051Z,13.84
2022-08-26T07:43:16.621Z,11.60
2022-08-26T07:44:19.601Z,16.52
2022-08-26T07:45:22.296Z,14.37
2022-08-26T07:46:27.208Z,16.54
2022-08-26T07:48:46.203Z,16.56
2022-08-26T07:49:48.788Z,10.72
2022-08-26T07:50:55.137Z,14.26
2022-08-26T07:52:00.019Z,14.39
2022-08-26T07:53:02.791Z,15.97
2022-08-26T07:54:05.258Z,21.71
2022-08-26T07:55:08.153Z,14.18
2022-08-26T07:56:11.537Z,11.97
2022-08-26T07:57:14.127Z,12.23
2022-08-26T07:58:16.774Z,14.37
2022-08-26T07:59:19.611Z,17.14
2022-08-26T08:00:24.366Z,14.72
2022-08-26T08:01:27.204Z,14.59
2022-08-26T08:02:30.932Z,19.66
2022-08-26T08:03:33.721Z,15.50
2022-08-26T08:04:36.760Z,13.99
2022-08-26T08:05:41.256Z,13.88
2022-08-26T08:06:43.733Z,17.92
2022-08-26T08:07:47.000Z,13.51
2022-08-26T08:08:50.903Z,10.91
2022-08-26T08:09:54.313Z,10.93
2022-08-26T08:10:57.977Z,15.08
2022-08-26T08:12:02.409Z,15.17
2022-08-26T08:13:05.243Z,15.86
2022-08-26T08:14:08.522Z,13.34
2022-08-26T08:15:11.378Z,17.17
2022-08-26T08:16:14.449Z,21.77
2022-08-26T08:18:31.845Z,16.52
2022-08-26T08:19:37.001Z,20.07
2022-08-26T08:21:50.593Z,20.36
2022-08-26T08:22:53.885Z,17.38
2022-08-26T08:23:59.800Z,14.54
2022-08-26T08:25:08.147Z,11.62
2022-08-26T08:27:01.286Z,13.88
2022-08-26T08:28:03.754Z,16.16
2022-08-26T08:29:06.419Z,15.16
2022-08-26T08:30:10.771Z,18.24
2022-08-26T08:31:21.633Z,13.24
2022-08-26T08:32:23.159Z,12.09
2022-08-26T08:33:25.817Z,13.41
2022-08-26T08:34:28.492Z,14.25
2022-08-26T08:35:31.603Z,28.52
2022-08-26T08:36:36.221Z,35.86
2022-08-26T08:37:39.125Z,12.82
2022-08-26T08:38:45.480Z,15.79
2022-08-26T08:39:49.020Z,11.76
2022-08-26T08:40:51.970Z,13.19
2022-08-26T08:42:05.320Z,16.33
2022-08-26T08:43:14.642Z,10.18
2022-08-26T08:44:19.086Z,13.69
2022-08-26T08:45:23.490Z,21.09
2022-08-26T08:46:26.919Z,13.29
2022-08-26T08:47:36.557Z,19.58
2022-08-26T08:48:43.262Z,17.26
2022-08-26T08:49:45.758Z,12.72
2022-08-26T08:50:49.009Z,11.89
2022-08-26T08:51:57.195Z,15.74
2022-08-26T08:53:09.023Z,14.36
2022-08-26T08:55:17.402Z,11.67
2022-08-26T08:56:19.476Z,13.06
2022-08-26T08:57:27.358Z,11.90
2022-08-26T08:58:31.889Z,10.48
2022-08-26T08:59:35.297Z,17.06
2022-08-26T09:00:44.411Z,9.66
2022-08-26T09:02:06.478Z,12.74
2022-08-26T09:04:22.960Z,13.92
2022-08-26T09:05:27.866Z,8.62
2022-08-26T09:06:30.949Z,11.04
2022-08-26T09:07:36.665Z,12.68
2022-08-26T09:08:39.805Z,10.98
2022-08-26T09:09:46.619Z,9.85
2022-08-26T09:10:53.978Z,12.73
2022-08-26T09:11:56.582Z,12.59
2022-08-26T09:12:59.425Z,10.37
2022-08-26T09:14:03.937Z,15.61
2022-08-26T09:16:33.312Z,10.67
2022-08-26T09:17:40.898Z,8.74
2022-08-26T09:18:51.268Z,12.29
2022-08-26T09:19:54.502Z,17.66
2022-08-26T09:21:01.771Z,12.79
2022-08-26T09:22:09.362Z,10.29
2022-08-26T09:23:09.865Z,12.67
2022-08-26T09:24:13.870Z,10.55
2022-08-26T09:25:16.781Z,11.08
2022-08-26T09:26:30.660Z,12.86
2022-08-26T09:27:35.540Z,10.54
2022-08-26T09:28:42.390Z,12.78
2022-08-26T09:29:44.975Z,14.56
2022-08-26T09:32:18.550Z,8.49
2022-08-26T09:33:21.350Z,11.58
2022-08-26T09:34:24.807Z,13.21
2022-08-26T09:35:36.443Z,11.68
2022-08-26T09:36:41.591Z,6.71
2022-08-26T09:38:48.937Z,11.69
2022-08-26T09:39:52.680Z,9.04
2022-08-26T09:41:03.418Z,11.04
2022-08-26T09:42:23.161Z,15.29
2022-08-26T09:43:25.745Z,10.18
2022-08-26T09:44:30.107Z,6.68
2022-08-26T09:45:33.435Z,11.54
2022-08-26T09:46:36.898Z,8.85
2022-08-26T09:47:40.662Z,10.85
2022-08-26T09:48:43.138Z,8.51
2022-08-26T09:49:45.675Z,12.32
2022-08-26T09:50:50.542Z,8.54
2022-08-26T09:52:12.975Z,6.71
2022-08-26T09:53:16.688Z,8.39
2022-08-26T09:54:25.216Z,9.23
2022-08-26T09:55:29.499Z,8.94
2022-08-26T09:56:33.349Z,8.95
2022-08-26T09:57:37.894Z,9.66
2022-08-26T09:58:41.926Z,7.41
2022-08-26T09:59:44.814Z,10.61
2022-08-26T10:00:57.975Z,8.54
2022-08-26T10:02:20.589Z,11.02
2022-08-26T10:04:39.024Z,10.97
2022-08-26T10:05:45.959Z,10.11
2022-08-26T10:06:57.202Z,9.06
2022-08-26T10:09:29.814Z,8.72
2022-08-26T10:10:44.066Z,9.54
2022-08-26T10:11:51.575Z,12.92
2022-08-26T10:14:15.992Z,9.78
2022-08-26T10:15:18.491Z,11.17
2022-08-26T10:16:25.452Z,11.98
2022-08-26T10:17:48.702Z,10.36
2022-08-26T10:18:59.440Z,6.27
2022-08-26T10:20:24.953Z,7.19
2022-08-26T10:22:40.299Z,13.24
2022-08-26T10:23:45.150Z,6.64
2022-08-26T10:24:54.509Z,7.24
2022-08-26T10:25:59.078Z,8.85
2022-08-26T10:29:38.873Z,6.97
2022-08-26T10:30:44.297Z,9.54
2022-08-26T10:31:51.905Z,5.75
2022-08-26T10:32:55.163Z,10.91
2022-08-26T10:34:00.466Z,6.02
2022-08-26T10:35:02.846Z,11.55
2022-08-26T10:36:06.344Z,6.59
2022-08-26T10:38:29.274Z,10.57
2022-08-26T10:39:34.022Z,7.49
2022-08-26T10:40:38.958Z,7.11
2022-08-26T10:41:42.389Z,12.10
2022-08-26T10:43:11.171Z,7.33
2022-08-26T10:44:10.010Z,7.28
2022-08-26T10:45:15.053Z,4.87
2022-08-26T10:46:20.795Z,6.94
2022-08-26T10:47:24.312Z,34.36
2022-08-26T10:49:51.533Z,6.99
2022-08-26T10:50:54.310Z,5.64
2022-08-26T10:52:01.665Z,14.39
2022-08-26T10:53:25.413Z,8.17
2022-08-26T10:54:31.178Z,10.41
2022-08-26T10:55:35.480Z,14.77
2022-08-26T10:58:09.107Z,8.96
2022-08-26T10:59:13.789Z,5.05
2022-08-26T11:00:27.689Z,4.06
2022-08-26T11:01:36.156Z,7.23
2022-08-26T11:02:41.539Z,3.54
2022-08-26T11:03:47.775Z,7.33
2022-08-26T11:04:56.112Z,5.60
2022-08-26T11:06:17.418Z,5.89
2022-08-26T11:07:38.431Z,4.97
2022-08-26T11:08:50.786Z,10.07
2022-08-26T11:09:57.065Z,4.89
2022-08-26T11:10:59.838Z,5.56
2022-08-26T11:12:10.023Z,8.78
2022-08-26T11:13:07.242Z,6.16
2022-08-26T11:14:10.716Z,10.54
2022-08-26T11:15:24.478Z,7.33
2022-08-26T11:16:37.345Z,4.99
2022-08-26T11:17:46.275Z,8.67
2022-08-26T11:18:51.395Z,8.46
2022-08-26T11:20:08.967Z,5.94
2022-08-26T11:21:02.250Z,5.47
2022-08-26T11:22:06.136Z,6.62
2022-08-26T11:23:13.528Z,8.31
2022-08-26T11:24:35.283Z,10.16
2022-08-26T11:25:59.691Z,8.94
2022-08-26T11:27:02.698Z,6.38
2022-08-26T11:28:06.472Z,9.27
2022-08-26T11:29:12.845Z,11.44
2022-08-26T11:30:18.509Z,12.14
2022-08-26T11:31:25.446Z,9.35
2022-08-26T11:32:36.155Z,6.44
2022-08-26T11:33:49.115Z,7.43
2022-08-26T11:36:11.983Z,8.38
2022-08-26T11:39:52.672Z,7.55
2022-08-26T11:42:10.070Z,10.41
2022-08-26T11:44:25.291Z,8.26
2022-08-26T11:46:51.622Z,7.18
2022-08-26T11:47:57.770Z,6.63
2022-08-26T11:49:00.858Z,8.38
2022-08-26T11:51:20.601Z,11.52
2022-08-26T11:52:23.090Z,8.01
2022-08-26T11:53:26.204Z,8.03
2022-08-26T11:54:35.203Z,8.52
2022-08-26T11:55:33.949Z,9.21
2022-08-26T11:56:36.820Z,7.48
2022-08-26T11:57:42.293Z,8.60
2022-08-26T11:58:44.878Z,6.39
2022-08-26T11:59:47.451Z,7.53
2022-08-26T12:02:15.253Z,9.30
2022-08-26T12:03:19.193Z,68.27
2022-08-26T12:04:23.785Z,5.39
2022-08-26T12:05:31.196Z,8.35
2022-08-26T12:07:48.281Z,9.10
2022-08-26T12:08:51.363Z,7.23
2022-08-26T12:09:58.541Z,6.81
2022-08-26T12:12:08.984Z,5.51
2022-08-26T12:14:28.027Z,9.03
2022-08-26T12:15:31.115Z,7.63
2022-08-26T12:17:48.529Z,7.78
2022-08-26T12:18:50.299Z,8.12
2022-08-26T12:19:52.749Z,6.95
2022-08-26T12:21:00.982Z,6.04
2022-08-26T12:23:34.233Z,7.15
2022-08-26T12:24:40.466Z,9.68
2022-08-26T12:25:42.977Z,6.24
2022-08-26T12:26:47.958Z,8.69
2022-08-26T12:27:53.756Z,5.51
2022-08-26T12:28:57.476Z,8.23
2022-08-26T12:30:03.236Z,10.32
2022-08-26T12:31:06.297Z,7.64
2022-08-26T12:33:22.694Z,7.27
2022-08-26T12:34:25.195Z,6.74
2022-08-26T12:35:29.680Z,8.07
2022-08-26T12:36:37.348Z,6.72
2022-08-26T12:38:58.097Z,4.93
2022-08-26T12:40:17.849Z,12.04
2022-08-26T12:41:42.862Z,12.41
2022-08-26T12:43:55.542Z,18.12
2022-08-26T12:44:59.148Z,7.02
2022-08-26T12:46:04.502Z,4.23
2022-08-26T12:47:13.713Z,11.23
2022-08-26T12:49:28.793Z,7.49
2022-08-26T12:50:32.487Z,6.31
2022-08-26T12:51:36.421Z,9.24
2022-08-26T12:53:01.074Z,12.13
2022-08-26T12:54:03.996Z,10.88
2022-08-26T12:55:07.661Z,6.98
2022-08-26T12:56:19.332Z,4.31
2022-08-26T12:57:24.085Z,8.70
2022-08-26T12:58:31.304Z,9.97
2022-08-26T12:59:33.933Z,8.10
2022-08-26T13:00:37.530Z,5.25
2022-08-26T13:01:43.475Z,7.53
2022-08-26T13:02:46.282Z,5.39
2022-08-26T13:03:49.150Z,7.29
2022-08-26T13:04:56.522Z,5.87
2022-08-26T13:06:16.613Z,9.81
2022-08-26T13:07:23.041Z,5.93
2022-08-26T13:08:26.679Z,10.19
2022-08-26T13:09:29.509Z,7.56
2022-08-26T13:10:34.531Z,5.58
2022-08-26T13:11:43.412Z,4.71
2022-08-26T13:12:45.949Z,13.81
2022-08-26T13:13:58.963Z,6.81
2022-08-26T13:15:01.765Z,6.93
2022-08-26T13:16:05.095Z,8.87
2022-08-26T13:17:07.841Z,6.79
2022-08-26T13:18:10.594Z,13.89
2022-08-26T13:19:17.315Z,5.29
2022-08-26T13:20:20.305Z,7.78
2022-08-26T13:21:27.908Z,5.58
2022-08-26T13:22:31.174Z,6.72
2022-08-26T13:23:33.862Z,8.69
2022-08-26T13:24:37.422Z,7.69
2022-08-26T13:25:39.937Z,6.00
2022-08-26T13:26:43.588Z,9.38
2022-08-26T13:27:51.446Z,6.87
2022-08-26T13:29:02.198Z,8.40
2022-08-26T13:30:00.989Z,7.29
2022-08-26T13:31:03.934Z,9.64
2022-08-26T13:32:08.216Z,6.43
2022-08-26T13:33:12.269Z,6.57
2022-08-26T13:34:17.129Z,7.59
2022-08-26T13:35:19.859Z,7.56
2022-08-26T13:37:35.606Z,6.12
2022-08-26T13:38:38.386Z,8.12
2022-08-26T13:39:41.523Z,8.26
2022-08-26T13:40:46.271Z,8.84
2022-08-26T13:41:51.081Z,7.53
2022-08-26T13:42:53.707Z,9.81
2022-08-26T13:43:56.624Z,11.43
2022-08-26T13:45:00.866Z,7.12
2022-08-26T13:46:03.945Z,8.15
2022-08-26T13:47:06.575Z,7.79
2022-08-26T13:48:09.323Z,8.16
2022-08-26T13:49:14.696Z,7.72
2022-08-26T13:50:19.273Z,8.34
2022-08-26T13:51:21.997Z,5.22
2022-08-26T13:52:25.519Z,6.40
2022-08-26T13:53:29.003Z,8.01
2022-08-26T13:54:31.722Z,6.27
2022-08-26T13:55:34.211Z,7.34
2022-08-26T13:56:36.933Z,9.35
2022-08-26T13:57:43.803Z,6.04
2022-08-26T13:58:46.839Z,7.03
2022-08-26T13:59:50.649Z,5.90
2022-08-26T14:00:54.889Z,12.22
2022-08-26T14:01:57.588Z,8.47
2022-08-26T14:03:01.612Z,7.34
2022-08-26T14:04:04.379Z,7.04
2022-08-26T14:05:07.477Z,8.54
2022-08-26T14:06:11.988Z,8.11
2022-08-26T14:07:14.613Z,5.61
2022-08-26T14:08:17.416Z,7.79
2022-08-26T14:09:19.972Z,7.31
2022-08-26T14:10:23.421Z,5.67
2022-08-26T14:11:25.950Z,6.33
2022-08-26T14:12:28.580Z,7.38
2022-08-26T14:13:31.202Z,7.15
2022-08-26T14:14:33.729Z,8.72
2022-08-26T14:15:36.458Z,11.20
2022-08-26T14:16:39.218Z,6.39
2022-08-26T14:17:43.966Z,11.83
2022-08-26T14:18:50.627Z,7.36
2022-08-26T14:19:51.472Z,5.63
2022-08-26T14:20:54.211Z,6.37
2022-08-26T14:21:56.772Z,8.16
2022-08-26T14:23:14.747Z,6.13
2022-08-26T14:24:04.235Z,10.89
2022-08-26T14:25:07.376Z,7.87
2022-08-26T14:26:10.475Z,7.06
2022-08-26T14:27:14.987Z,7.67
2022-08-26T14:28:17.630Z,8.69
2022-08-26T14:29:20.211Z,4.31
2022-08-26T14:30:23.898Z,12.01
2022-08-26T14:31:30.158Z,4.37
2022-08-26T14:32:32.832Z,10.53
2022-08-26T14:33:35.972Z,7.96
2022-08-26T14:34:39.216Z,10.04
2022-08-26T14:35:47.903Z,8.51
2022-08-26T14:36:46.213Z,12.59
2022-08-26T14:37:48.904Z,21.86
2022-08-26T14:38:51.567Z,7.78
2022-08-26T14:39:54.110Z,5.11
2022-08-26T14:40:59.586Z,5.77
2022-08-26T14:42:02.317Z,13.03
2022-08-26T14:43:04.918Z,4.30
2022-08-26T14:44:09.518Z,14.07
2022-08-26T14:45:12.658Z,6.65
2022-08-26T14:46:16.202Z,9.86
2022-08-26T14:47:18.935Z,6.67
2022-08-26T14:48:21.666Z,4.74
2022-08-26T14:50:35.960Z,6.57
2022-08-26T14:51:38.963Z,7.50
2022-08-26T14:52:41.653Z,8.51
2022-08-26T14:54:56.687Z,10.80
2022-08-26T14:55:59.257Z,6.78
2022-08-26T14:57:03.932Z,7.83